Time;durP1;ratioP1;P1;durP2;ratioP2;P2;SDS_P1;SDS_P2;PMS_P1;PMS_P2;Temp;Humidity;BMP_temperature;BMP_pressure;BME280_temperature;BME280_humidity;BME280_pressure;Samples;Min_cycle;Max_cycle;Signal;HPM_P1;HPM_P2
2022/09/26 00:01:09;;;;;;;10.07;2.50;;;11.90;99.90;;;;;;5075453;28;20482;-65
2022/09/26 00:03:35;;;;;;;7.87;2.10;;;11.90;99.90;;;;;;5075685;28;20618;-65
2022/09/26 00:06:06;;;;;;;7.67;2.70;;;11.90;99.90;;;;;;5075463;28;20282;-65
2022/09/26 00:08:33;;;;;;;7.17;2.67;;;11.90;99.90;;;;;;5075779;28;20271;-65
2022/09/26 00:11:00;;;;;;;7.10;2.40;;;11.90;99.90;;;;;;5075246;28;20275;-66
2022/09/26 00:13:28;;;;;;;10.63;2.40;;;11.90;99.90;;;;;;5075729;28;20278;-65
2022/09/26 00:15:55;;;;;;;7.93;2.27;;;11.90;99.90;;;;;;5075137;28;20282;-65
2022/09/26 00:18:21;;;;;;;9.87;2.30;;;11.90;99.90;;;;;;5075617;28;20369;-65
2022/09/26 00:20:47;;;;;;;7.37;2.17;;;11.80;99.90;;;;;;5057724;28;20356;-65
2022/09/26 00:23:14;;;;;;;8.13;2.40;;;11.90;99.90;;;;;;5075095;28;20274;-65
2022/09/26 00:25:50;;;;;;;11.30;2.20;;;11.90;99.90;;;;;;5075598;28;20758;-65
2022/09/26 00:28:17;;;;;;;7.03;2.10;;;11.90;99.90;;;;;;5057341;28;20274;-65
2022/09/26 00:30:44;;;;;;;6.27;2.70;;;11.90;99.90;;;;;;5074939;28;20279;-65
2022/09/26 00:33:10;;;;;;;10.30;2.20;;;11.90;99.90;;;;;;5074902;28;20307;-65
2022/09/26 00:35:37;;;;;;;8.67;2.60;;;11.90;99.90;;;;;;5075053;28;20285;-65
2022/09/26 00:38:03;;;;;;;6.97;2.00;;;11.90;99.90;;;;;;5056852;28;20387;-65
2022/09/26 00:40:29;;;;;;;7.67;2.63;;;11.90;99.90;;;;;;5074909;28;20285;-65
2022/09/26 00:42:55;;;;;;;5.83;2.10;;;11.90;99.90;;;;;;5056844;28;20365;-65
2022/09/26 00:45:24;;;;;;;5.17;2.20;;;11.90;99.90;;;;;;5074617;28;20283;-65
2022/09/26 00:48:00;;;;;;;6.53;2.00;;;11.90;99.90;;;;;;5074467;28;20347;-65
2022/09/26 00:50:29;;;;;;;;;;;11.90;99.90;;;;;;5075415;28;20283;-65
2022/09/26 00:52:55;;;;;;;9.33;2.10;;;11.90;99.90;;;;;;5074783;28;19927;-65
2022/09/26 00:55:24;;;;;;;7.33;2.57;;;11.90;99.90;;;;;;5056193;28;20646;-65
2022/09/26 00:57:58;;;;;;;10.03;2.53;;;11.90;99.90;;;;;;5074537;28;20044;-65
2022/09/26 01:00:24;;;;;;;9.00;2.77;;;11.90;99.90;;;;;;5074389;28;20275;-65
2022/09/26 01:02:51;;;;;;;8.67;2.30;;;11.90;99.90;;;;;;5074587;28;20286;-65
2022/09/26 01:05:20;;;;;;;7.53;2.40;;;11.90;99.90;;;;;;5056428;28;20044;-65
2022/09/26 01:07:47;;;;;;;8.40;2.50;;;11.90;99.90;;;;;;5074489;28;20275;-65
2022/09/26 01:10:14;;;;;;;7.10;2.20;;;11.90;99.90;;;;;;5074080;28;20286;-65
2022/09/26 01:12:41;;;;;;;7.77;2.40;;;11.90;99.90;;;;;;5074322;28;20282;-65
2022/09/26 01:15:07;;;;;;;6.43;2.40;;;11.90;99.90;;;;;;5073923;28;20317;-65
2022/09/26 01:17:36;;;;;;;8.17;2.40;;;11.90;99.90;;;;;;5074121;28;20298;-66
2022/09/26 01:20:15;;;;;;;8.87;2.33;;;11.90;99.90;;;;;;5073566;28;20309;-67
2022/09/26 01:23:05;;;;;;;7.10;2.03;;;11.90;99.90;;;;;;5056361;28;20315;-65
2022/09/26 01:25:51;;;;;;;6.60;2.13;;;11.90;99.90;;;;;;5074337;28;20612;-65
2022/09/26 01:28:37;;;;;;;7.20;2.40;;;11.90;99.90;;;;;;5073701;28;20279;-65
2022/09/26 01:31:23;;;;;;;7.20;2.20;;;11.90;99.90;;;;;;5074008;28;20302;-67
2022/09/26 01:34:09;;;;;;;6.60;2.50;;;11.90;99.90;;;;;;5074072;28;20306;-65
2022/09/26 01:36:56;;;;;;;7.73;2.20;;;11.90;99.90;;;;;;5074041;28;20286;-65
2022/09/26 01:39:50;;;;;;;8.07;2.10;;;11.90;99.90;;;;;;5073536;28;20407;-65
2022/09/26 01:42:38;;;;;;;10.40;2.33;;;11.90;99.90;;;;;;5073454;28;20369;-65
2022/09/26 01:45:39;;;;;;;6.27;1.80;;;11.90;99.90;;;;;;5073553;28;20769;-65
2022/09/26 01:48:15;;;;;;;9.80;2.90;;;11.90;99.90;;;;;;5073529;28;20738;-69
2022/09/26 01:50:52;;;;;;;5.83;2.27;;;11.90;99.90;;;;;;5073757;28;20279;-65
2022/09/26 01:53:28;;;;;;;7.40;2.00;;;11.90;99.90;;;;;;5073098;28;20282;-66
2022/09/26 01:56:02;;;;;;;8.40;2.10;;;11.90;99.90;;;;;;5073524;28;20340;-66
2022/09/26 01:58:36;;;;;;;8.80;2.30;;;11.90;99.90;;;;;;5073081;28;20834;-66
2022/09/26 02:01:07;;;;;;;6.20;2.00;;;11.90;99.90;;;;;;5073398;28;20044;-66
2022/09/26 02:03:38;;;;;;;8.57;2.30;;;11.90;99.90;;;;;;5073431;28;20278;-66
2022/09/26 02:06:19;;;;;;;9.07;2.57;;;11.80;99.90;;;;;;5073463;28;20283;-66
2022/09/26 02:08:49;;;;;;;8.20;2.70;;;11.80;99.90;;;;;;5073564;28;20293;-66
2022/09/26 02:11:17;;;;;;;9.90;2.63;;;11.80;99.90;;;;;;5072925;28;20387;-66
2022/09/26 02:14:06;;;;;;;9.07;2.23;;;11.80;99.90;;;;;;5073198;28;20270;-65
2022/09/26 02:16:36;;;;;;;8.97;2.60;;;11.70;99.90;;;;;;5054921;28;20301;-66
2022/09/26 02:19:09;;;;;;;7.60;2.60;;;11.70;99.90;;;;;;5073192;28;20279;-65
2022/09/26 02:21:35;;;;;;;13.00;3.67;;;11.70;99.90;;;;;;5073276;28;20285;-65
2022/09/26 02:24:01;;;;;;;9.57;2.40;;;11.70;99.90;;;;;;5073098;28;20270;-65
2022/09/26 02:26:28;;;;;;;7.17;2.70;;;11.70;99.90;;;;;;5072756;28;20278;-66
2022/09/26 02:28:55;;;;;;;10.23;2.90;;;11.70;99.90;;;;;;5073019;28;20271;-66
2022/09/26 02:31:24;;;;;;;8.73;2.63;;;11.70;99.90;;;;;;5071880;28;20825;-66
2022/09/26 02:33:52;;;;;;;8.40;3.17;;;11.70;99.90;;;;;;5072970;28;20769;-66
2022/09/26 02:36:19;;;;;;;7.90;3.20;;;11.70;99.90;;;;;;5072751;28;20279;-66
2022/09/26 02:38:45;;;;;;;10.43;3.13;;;11.70;99.90;;;;;;5072876;28;20299;-65
2022/09/26 02:41:27;;;;;;;6.80;3.27;;;11.70;99.90;;;;;;5054767;28;20283;-68
2022/09/26 02:44:08;;;;;;;8.03;2.97;;;11.70;99.90;;;;;;5055230;28;20302;-65
2022/09/26 02:46:38;;;;;;;8.03;3.10;;;11.70;99.90;;;;;;5072588;28;20366;-65
2022/09/26 02:49:39;;;;;;;10.03;3.20;;;11.60;99.90;;;;;;5072836;28;20315;-65
2022/09/26 02:52:35;;;;;;;8.30;2.70;;;11.60;99.90;;;;;;5040948;28;20759;-65
2022/09/26 02:55:10;;;;;;;7.93;3.63;;;11.60;99.90;;;;;;5072903;28;20388;-65
2022/09/26 02:58:10;;;;;;;7.63;2.80;;;11.60;99.90;;;;;;5072450;28;20306;-66
2022/09/26 03:01:16;;;;;;;9.47;3.00;;;11.60;99.90;;;;;;5072499;28;20048;-65
2022/09/26 03:03:49;;;;;;;9.80;3.60;;;11.60;99.90;;;;;;4971541;28;20305;-66
2022/09/26 03:06:17;;;;;;;8.50;3.30;;;11.70;99.90;;;;;;4955543;28;20290;-67
2022/09/26 03:08:47;;;;;;;12.17;3.90;;;11.60;99.90;;;;;;5024894;28;20287;-66
2022/09/26 03:11:19;;;;;;;13.93;4.03;;;11.70;99.90;;;;;;5072744;28;20307;-66
2022/09/26 03:13:46;;;;;;;15.13;4.03;;;11.70;99.90;;;;;;5072293;28;20278;-66
2022/09/26 03:16:13;;;;;;;13.23;4.33;;;11.70;99.90;;;;;;5072669;28;20603;-65
2022/09/26 03:18:50;;;;;;;7.63;4.20;;;11.70;99.90;;;;;;5072145;28;20294;-66
2022/09/26 03:21:16;;;;;;;11.27;4.17;;;11.70;99.90;;;;;;5072281;28;20279;-68
2022/09/26 03:23:42;;;;;;;10.67;3.80;;;11.70;99.90;;;;;;5072399;28;20284;-66
2022/09/26 03:26:12;;;;;;;10.10;4.63;;;11.70;99.90;;;;;;5072562;28;20376;-66
2022/09/26 03:28:40;;;;;;;13.43;4.30;;;11.70;99.90;;;;;;5072408;28;20314;-65
2022/09/26 03:31:06;;;;;;;11.97;4.13;;;11.70;99.90;;;;;;5072365;28;20275;-65
2022/09/26 03:33:33;;;;;;;8.70;4.07;;;11.70;99.90;;;;;;5054422;28;20291;-66
2022/09/26 03:35:59;;;;;;;8.63;4.03;;;11.70;99.90;;;;;;5072424;28;20275;-66
2022/09/26 03:38:26;;;;;;;9.97;4.20;;;11.70;99.90;;;;;;5071889;28;20344;-66
2022/09/26 03:40:52;;;;;;;12.13;4.53;;;11.70;99.90;;;;;;5072374;28;20341;-66
2022/09/26 03:43:18;;;;;;;11.27;4.93;;;11.70;99.90;;;;;;5073675;28;20767;-68
2022/09/26 03:45:44;;;;;;;14.20;4.27;;;11.70;99.90;;;;;;5041662;28;20348;-65
2022/09/26 03:48:09;;;;;;;9.97;4.43;;;11.70;99.90;;;;;;5058149;28;20048;-65
2022/09/26 03:50:35;;;;;;;10.47;4.30;;;11.70;99.90;;;;;;5058032;28;20507;-66
2022/09/26 03:53:01;;;;;;;10.70;4.87;;;11.70;99.90;;;;;;5075554;28;20114;-65
2022/09/26 03:55:27;;;;;;;9.20;4.83;;;11.70;99.90;;;;;;5075469;28;20048;-66
2022/09/26 03:57:54;;;;;;;7.97;4.30;;;11.70;99.90;;;;;;5075405;28;20459;-66
2022/09/26 04:00:19;;;;;;;10.90;4.17;;;11.70;99.90;;;;;;5075610;28;20282;-68
2022/09/26 04:02:45;;;;;;;14.43;4.20;;;11.70;99.90;;;;;;5075569;28;20692;-65
2022/09/26 04:05:11;;;;;;;10.43;4.33;;;11.70;99.90;;;;;;5057900;28;20045;-65
2022/09/26 04:07:36;;;;;;;7.90;3.90;;;11.70;99.90;;;;;;5075302;28;20045;-66
2022/09/26 04:10:02;;;;;;;10.73;4.33;;;11.60;99.90;;;;;;5075873;28;20094;-65
2022/09/26 04:12:28;;;;;;;14.87;5.17;;;11.70;99.90;;;;;;5074984;28;20519;-66
2022/09/26 04:14:54;;;;;;;12.03;4.27;;;11.70;99.90;;;;;;5075567;28;20295;-65
2022/09/26 04:17:19;;;;;;;8.43;4.03;;;11.60;99.90;;;;;;5075125;28;20048;-65
2022/09/26 04:19:45;;;;;;;9.13;3.80;;;11.70;99.90;;;;;;5075093;28;20049;-65
2022/09/26 04:22:11;;;;;;;8.23;3.57;;;11.60;99.90;;;;;;5057550;28;20044;-65
2022/09/26 04:24:37;;;;;;;10.17;4.20;;;11.70;99.90;;;;;;5075111;28;20044;-66
2022/09/26 04:27:03;;;;;;;8.87;4.53;;;11.60;99.90;;;;;;5075533;28;20135;-65
2022/09/26 04:29:29;;;;;;;8.67;4.10;;;11.60;99.90;;;;;;5075101;28;20054;-65
2022/09/26 04:31:55;;;;;;;10.67;5.00;;;11.60;99.90;;;;;;5075280;28;20270;-65
2022/09/26 04:34:23;;;;;;;8.27;4.50;;;11.60;99.90;;;;;;5075146;28;20044;-65
2022/09/26 04:36:51;;;;;;;9.27;4.03;;;11.60;99.90;;;;;;5074753;28;20048;-65
2022/09/26 04:39:17;;;;;;;9.63;4.47;;;11.60;99.90;;;;;;5074780;28;20785;-65
2022/09/26 04:41:43;;;;;;;7.73;4.63;;;11.60;99.90;;;;;;5074781;28;20357;-65
2022/09/26 04:44:09;;;;;;;10.13;3.93;;;11.60;99.90;;;;;;5075003;28;20687;-65
2022/09/26 04:46:35;;;;;;;9.63;5.13;;;11.60;99.90;;;;;;5074632;28;20049;-65
2022/09/26 04:49:01;;;;;;;7.27;4.20;;;11.60;99.90;;;;;;5075124;28;20328;-65
2022/09/26 04:51:28;;;;;;;8.57;4.83;;;11.60;99.90;;;;;;5074640;28;20041;-66
2022/09/26 04:53:54;;;;;;;9.77;4.70;;;11.60;99.90;;;;;;5074313;28;20322;-65
2022/09/26 04:56:22;;;;;;;13.73;4.47;;;11.60;99.90;;;;;;5074459;28;20293;-65
2022/09/26 04:58:48;;;;;;;10.07;4.37;;;11.60;99.90;;;;;;5074253;28;20355;-66
2022/09/26 05:01:16;;;;;;;10.43;4.90;;;11.60;99.90;;;;;;5074512;28;20744;-65
2022/09/26 05:03:43;;;;;;;10.33;4.93;;;11.60;99.90;;;;;;5074320;28;20286;-66
2022/09/26 05:06:10;;;;;;;9.57;4.70;;;11.60;99.90;;;;;;5074465;28;20807;-65
2022/09/26 05:08:40;;;;;;;11.27;4.87;;;11.60;99.90;;;;;;5074193;28;20271;-66
2022/09/26 05:11:06;;;;;;;8.23;5.10;;;11.60;99.90;;;;;;5074490;28;20310;-65
2022/09/26 05:13:33;;;;;;;12.73;5.70;;;11.60;99.90;;;;;;5056233;28;20287;-66
2022/09/26 05:16:02;;;;;;;10.50;5.43;;;11.50;99.90;;;;;;5074430;28;20310;-65
2022/09/26 05:18:28;;;;;;;10.90;5.83;;;11.60;99.90;;;;;;5074072;28;20291;-69
2022/09/26 05:20:56;;;;;;;10.07;4.80;;;11.60;99.90;;;;;;5074160;28;20283;-65
2022/09/26 05:26:19;;;;;;;9.30;5.43;;;11.60;99.90;;;;;;5074117;28;20307;-65
2022/09/26 05:28:48;;;;;;;9.47;5.23;;;11.60;99.90;;;;;;5073815;28;20274;-66
2022/09/26 05:31:15;;;;;;;9.43;5.73;;;11.60;99.90;;;;;;5074095;28;20282;-66
2022/09/26 05:33:41;;;;;;;7.57;5.50;;;11.60;99.90;;;;;;5073679;28;20322;-66
2022/09/26 05:36:07;;;;;;;9.57;5.43;;;11.50;99.90;;;;;;5073976;28;20321;-66
2022/09/26 05:38:33;;;;;;;11.80;6.13;;;11.60;99.90;;;;;;5073544;28;20298;-66
2022/09/26 05:40:59;;;;;;;9.93;5.63;;;11.60;99.90;;;;;;5056030;28;20688;-66
2022/09/26 05:43:31;;;;;;;7.60;4.57;;;11.60;99.90;;;;;;5073800;28;20282;-66
2022/09/26 05:45:58;;;;;;;9.40;4.27;;;11.50;99.90;;;;;;5073720;28;20282;-66
2022/09/26 05:48:25;;;;;;;10.47;4.60;;;11.60;99.90;;;;;;5073689;28;20275;-66
2022/09/26 05:50:51;;;;;;;10.60;5.17;;;11.50;99.90;;;;;;5073376;28;20358;-66
2022/09/26 05:53:18;;;;;;;12.10;5.00;;;11.50;99.90;;;;;;5073586;28;20290;-65
2022/09/26 05:55:49;;;;;;;9.77;4.47;;;11.50;99.90;;;;;;5072916;28;20275;-66
2022/09/26 05:58:15;;;;;;;10.87;5.30;;;11.50;99.90;;;;;;5073543;28;20381;-66
2022/09/26 06:00:40;;;;;;;8.67;4.70;;;11.50;99.90;;;;;;5073508;28;20877;-66
2022/09/26 06:03:06;;;;;;;9.67;4.63;;;11.50;99.90;;;;;;5073438;28;20465;-65
2022/09/26 06:05:33;;;;;;;12.40;4.80;;;11.50;99.90;;;;;;5073292;28;20066;-65
2022/09/26 06:08:00;;;;;;;11.03;4.60;;;11.50;99.90;;;;;;5073282;28;20048;-65
2022/09/26 06:10:26;;;;;;;11.73;5.00;;;11.40;99.90;;;;;;5073245;28;20283;-65
2022/09/26 06:12:52;;;;;;;10.00;4.93;;;11.50;99.90;;;;;;5072931;28;20799;-65
2022/09/26 06:15:18;;;;;;;10.70;4.20;;;11.50;99.90;;;;;;5072829;28;20053;-65
2022/09/26 06:17:45;;;;;;;10.40;4.80;;;11.50;99.90;;;;;;5072870;28;20306;-66
2022/09/26 06:20:12;;;;;;;11.03;4.43;;;11.50;99.90;;;;;;5073373;28;20084;-66
2022/09/26 06:22:42;;;;;;;7.63;4.23;;;11.50;99.90;;;;;;5072855;28;20762;-66
2022/09/26 06:25:09;;;;;;;12.97;4.40;;;11.50;99.90;;;;;;5072785;28;20635;-66
2022/09/26 06:27:37;;;;;;;7.50;4.40;;;11.40;99.90;;;;;;5073164;28;20277;-67
2022/09/26 06:30:09;;;;;;;8.23;3.83;;;11.50;99.90;;;;;;5059579;28;20323;-67
2022/09/26 06:32:37;;;;;;;10.40;4.50;;;11.40;99.90;;;;;;5052927;28;22106;-67
2022/09/26 06:35:04;;;;;;;11.07;4.57;;;11.40;99.90;;;;;;5065665;28;20291;-67
2022/09/26 06:37:30;;;;;;;9.00;4.37;;;11.40;99.90;;;;;;5063843;28;20299;-67
2022/09/26 06:39:56;;;;;;;8.83;4.13;;;11.40;99.90;;;;;;5052357;28;20291;-66
2022/09/26 06:42:23;;;;;;;6.10;3.73;;;11.40;99.90;;;;;;5035431;28;20057;-67
2022/09/26 06:44:48;;;;;;;10.03;4.27;;;11.40;99.90;;;;;;5057249;28;20135;-67
2022/09/26 06:47:14;;;;;;;9.60;4.20;;;11.40;99.90;;;;;;5061405;28;20413;-66
2022/09/26 06:49:40;;;;;;;8.17;4.00;;;11.40;99.90;;;;;;5051934;28;20052;-66
2022/09/26 06:52:05;;;;;;;7.90;4.00;;;11.40;99.90;;;;;;5035000;28;20051;-73
2022/09/26 06:54:31;;;;;;;7.17;3.97;;;11.40;99.90;;;;;;5070295;28;20079;-76
2022/09/26 06:56:57;;;;;;;9.10;4.40;;;11.40;99.90;;;;;;5038178;28;20349;-76
2022/09/26 06:59:22;;;;;;;9.07;4.23;;;11.40;99.90;;;;;;5072752;28;20078;-74
2022/09/26 07:01:49;;;;;;;8.63;4.13;;;11.40;99.90;;;;;;5072388;28;20048;-76
2022/09/26 07:04:14;;;;;;;12.07;3.90;;;11.50;99.90;;;;;;5072931;28;20423;-72
2022/09/26 07:06:41;;;;;;;10.13;4.50;;;11.50;99.90;;;;;;5071859;28;20279;-70
2022/09/26 07:09:07;;;;;;;9.83;3.57;;;11.50;99.90;;;;;;5054952;28;20449;-68
2022/09/26 07:11:33;;;;;;;12.73;3.90;;;11.40;99.90;;;;;;5038453;28;20283;-71
2022/09/26 07:14:00;;;;;;;9.83;3.60;;;11.40;99.90;;;;;;5072109;28;20340;-68
2022/09/26 07:16:27;;;;;;;7.63;3.87;;;11.40;99.90;;;;;;5054247;28;20056;-67
2022/09/26 07:18:53;;;;;;;6.53;3.50;;;11.50;99.90;;;;;;5057442;28;20384;-67
2022/09/26 07:21:19;;;;;;;8.13;3.27;;;11.50;99.90;;;;;;5076672;28;20285;-67
2022/09/26 07:23:45;;;;;;;7.20;3.60;;;11.50;99.90;;;;;;5058667;28;20287;-67
2022/09/26 07:26:10;;;;;;;9.93;3.93;;;11.50;99.90;;;;;;5076450;28;20049;-67
2022/09/26 07:28:37;;;;;;;6.70;3.40;;;11.60;99.90;;;;;;5076256;28;20082;-71
2022/09/26 07:31:03;;;;;;;6.93;3.30;;;11.60;99.90;;;;;;5075967;28;20933;-67
2022/09/26 07:33:28;;;;;;;7.10;2.83;;;11.70;99.90;;;;;;5076206;28;20370;-68
2022/09/26 07:35:55;;;;;;;7.53;3.10;;;11.70;99.90;;;;;;5075709;28;20049;-68
2022/09/26 07:38:21;;;;;;;7.73;3.30;;;11.80;99.90;;;;;;5076018;28;20041;-68
2022/09/26 07:40:53;;;;;;;6.80;3.20;;;11.80;99.90;;;;;;5075762;28;20290;-68
2022/09/26 07:43:19;;;;;;;6.77;3.03;;;11.70;99.90;;;;;;5076039;28;20052;-66
2022/09/26 07:51:15;;;;;;;5.97;2.90;;;11.80;99.90;;;;;;5075874;28;20279;-67
2022/09/26 07:53:41;;;;;;;7.67;2.90;;;11.90;99.90;;;;;;5075787;28;20357;-68
2022/09/26 07:56:10;;;;;;;7.57;3.00;;;11.90;99.90;;;;;;5075431;28;20358;-67
2022/09/26 07:58:38;;;;;;;9.47;2.87;;;11.90;99.90;;;;;;5075693;28;20040;-67
2022/09/26 08:01:13;;;;;;;6.83;2.63;;;12.00;99.90;;;;;;5075442;28;20344;-68
2022/09/26 08:03:40;;;;;;;7.68;2.47;;;12.00;99.90;;;;;;5075496;28;20282;-66
2022/09/26 08:06:07;;;;;;;5.33;2.53;;;12.00;99.90;;;;;;5074936;28;20055;-66
2022/09/26 08:08:34;;;;;;;6.47;2.67;;;12.00;99.90;;;;;;5075788;28;20707;-65
2022/09/26 08:11:00;;;;;;;9.73;2.87;;;12.10;99.90;;;;;;5075490;28;20665;-65
2022/09/26 08:13:27;;;;;;;7.57;3.00;;;12.10;99.90;;;;;;5058029;28;20289;-64
2022/09/26 08:15:53;;;;;;;7.07;2.40;;;12.10;99.90;;;;;;5075297;28;20374;-65
2022/09/26 08:18:19;;;;;;;10.73;2.47;;;12.10;99.90;;;;;;5057634;28;20356;-65
2022/09/26 08:20:46;;;;;;;9.80;2.70;;;12.20;99.90;;;;;;5075440;28;20370;-64
2022/09/26 08:23:16;;;;;;;7.73;2.70;;;12.20;99.90;;;;;;5075188;28;20045;-65
2022/09/26 08:25:42;;;;;;;7.77;2.50;;;12.10;99.90;;;;;;5075381;28;20271;-65
2022/09/26 08:28:11;;;;;;;8.00;3.10;;;12.20;99.90;;;;;;5075079;28;20278;-65
2022/09/26 08:30:38;;;;;;;8.53;2.90;;;12.20;99.90;;;;;;5040302;28;20283;-65
2022/09/26 08:33:04;;;;;;;6.97;2.67;;;12.20;99.90;;;;;;5074983;28;20332;-65
2022/09/26 08:35:32;;;;;;;5.63;2.80;;;12.20;99.90;;;;;;5075236;28;20278;-65
2022/09/26 08:38:02;;;;;;;8.83;2.63;;;12.30;99.90;;;;;;5074874;28;20295;-65
2022/09/26 08:40:44;;;;;;;6.40;2.47;;;12.30;99.90;;;;;;5075126;28;20370;-65
2022/09/26 08:43:17;;;;;;;10.47;3.20;;;12.40;99.90;;;;;;5057043;28;20271;-65
2022/09/26 08:48:41;;;;;;;8.23;2.50;;;12.60;99.90;;;;;;5074991;28;20279;-65
2022/09/26 08:51:22;;;;;;;6.70;2.50;;;12.60;99.90;;;;;;5074691;28;20287;-65
2022/09/26 08:54:11;;;;;;;7.60;2.80;;;12.70;99.90;;;;;;5075043;28;20278;-66
2022/09/26 08:56:42;;;;;;;9.83;2.50;;;12.70;99.90;;;;;;5061339;28;20365;-65
2022/09/26 08:59:24;;;;;;;6.30;2.57;;;12.80;99.90;;;;;;5074311;28;20759;-67
2022/09/26 09:01:53;;;;;;;8.07;3.17;;;12.80;99.90;;;;;;5075050;28;20378;-71
2022/09/26 09:04:51;;;;;;;9.13;3.43;;;12.70;99.90;;;;;;5074764;28;20274;-71
2022/09/26 09:07:29;;;;;;;8.23;3.43;;;12.80;99.90;;;;;;5049498;28;20325;-72
2022/09/26 09:10:09;;;;;;;6.63;2.70;;;12.80;99.90;;;;;;5074439;28;20296;-72
2022/09/26 09:12:38;;;;;;;6.27;3.17;;;12.80;99.90;;;;;;5074813;28;20630;-70
2022/09/26 09:15:12;;;;;;;7.73;2.80;;;12.70;99.90;;;;;;5074170;28;20691;-70
2022/09/26 09:17:50;;;;;;;7.80;2.70;;;12.80;99.90;;;;;;5074383;28;20302;-70
2022/09/26 09:20:32;;;;;;;10.37;2.90;;;12.80;99.90;;;;;;5073843;28;20912;-70
2022/09/26 09:23:07;;;;;;;10.73;2.40;;;12.70;99.90;;;;;;5071364;28;20279;-68
2022/09/26 09:25:49;;;;;;;12.43;2.92;;;12.70;99.90;;;;;;5071163;28;20836;-68
2022/09/26 09:28:24;;;;;;;9.23;3.10;;;12.70;99.90;;;;;;5071097;28;20041;-68
2022/09/26 09:30:57;;;;;;;9.07;3.17;;;12.60;99.90;;;;;;5073970;28;20354;-65
2022/09/26 09:33:28;;;;;;;7.87;3.50;;;12.60;99.90;;;;;;5074509;28;20462;-65
2022/09/26 09:36:18;;;;;;;10.03;4.23;;;12.50;99.90;;;;;;5074252;28;20275;-65
2022/09/26 09:38:47;;;;;;;7.23;3.10;;;12.40;99.90;;;;;;5062051;28;20313;-65
2022/09/26 09:41:17;;;;;;;15.90;4.63;;;12.40;99.90;;;;;;5073263;28;20283;-66
2022/09/26 09:43:59;;;;;;;8.60;3.73;;;12.40;99.90;;;;;;5073948;28;20285;-66
2022/09/26 09:46:30;;;;;;;6.87;3.93;;;12.30;99.90;;;;;;5073552;28;20751;-66
2022/09/26 09:49:09;;;;;;;12.00;4.13;;;12.30;99.90;;;;;;5073705;28;20604;-65
2022/09/26 09:51:47;;;;;;;10.83;4.17;;;12.40;99.90;;;;;;5073599;28;20785;-65
2022/09/26 09:54:30;;;;;;;8.53;4.27;;;12.40;99.90;;;;;;5073502;28;20279;-65
2022/09/26 09:57:17;;;;;;;7.83;3.87;;;12.40;99.90;;;;;;5073624;28;20285;-65
2022/09/26 09:59:43;;;;;;;10.70;4.20;;;12.40;99.90;;;;;;5073963;28;20318;-65
2022/09/26 10:02:30;;;;;;;8.13;4.00;;;12.40;99.90;;;;;;5073364;28;20698;-66
2022/09/26 10:05:24;;;;;;;8.47;4.00;;;12.40;99.90;;;;;;5073507;28;20044;-65
2022/09/26 10:07:57;;;;;;;11.60;4.23;;;12.30;99.90;;;;;;5073880;28;20279;-66
2022/09/26 10:10:47;;;;;;;9.70;4.57;;;12.30;99.90;;;;;;5055391;28;20272;-65
2022/09/26 10:13:14;;;;;;;8.23;4.23;;;12.30;99.90;;;;;;5021863;28;20374;-65
2022/09/26 10:15:56;;;;;;;8.07;3.80;;;12.30;99.90;;;;;;5073163;28;20283;-65
2022/09/26 10:18:22;;;;;;;9.93;4.23;;;12.30;99.90;;;;;;5073075;28;21048;-65
2022/09/26 10:20:58;;;;;;;10.20;5.40;;;12.30;99.90;;;;;;5073355;28;20350;-67
2022/09/26 10:23:53;;;;;;;11.00;4.97;;;12.40;99.90;;;;;;5072955;28;20287;-67
2022/09/26 10:26:25;;;;;;;12.07;5.55;;;12.30;99.90;;;;;;5051338;28;20542;-64
2022/09/26 10:28:54;;;;;;;10.33;5.30;;;12.30;99.90;;;;;;5073367;28;20131;-75
2022/09/26 10:31:34;;;;;;;10.43;5.33;;;12.30;99.90;;;;;;5038467;28;20286;-68
2022/09/26 10:34:17;;;;;;;13.43;5.60;;;12.30;99.90;;;;;;5073169;28;20326;-64
2022/09/26 10:36:43;;;;;;;11.53;5.80;;;12.30;99.90;;;;;;5072830;28;20766;-65
2022/09/26 10:42:00;;;;;;;14.13;6.40;;;12.30;99.90;;;;;;5073134;28;20133;-65
2022/09/26 10:44:29;;;;;;;10.00;5.43;;;12.30;99.90;;;;;;5072586;28;20295;-66
2022/09/26 10:47:07;;;;;;;8.83;5.10;;;12.30;99.90;;;;;;5072842;28;20382;-67
2022/09/26 10:49:50;;;;;;;9.87;5.27;;;12.20;99.90;;;;;;5069843;28;20275;-69
2022/09/26 10:52:23;;;;;;;10.50;5.70;;;12.30;99.90;;;;;;5069305;28;20639;-69
2022/09/26 10:55:03;;;;;;;10.43;5.47;;;12.30;99.90;;;;;;5072288;28;20325;-70
2022/09/26 10:57:35;;;;;;;8.63;5.13;;;12.30;99.90;;;;;;5072080;28;20302;-68
2022/09/26 11:00:05;;;;;;;7.83;5.87;;;12.30;99.90;;;;;;5080416;28;20287;-68
2022/09/26 11:02:31;;;;;;;10.27;5.40;;;12.30;99.90;;;;;;5078784;28;20283;-68
2022/09/26 11:07:51;;;;;;;9.40;6.13;;;12.30;99.90;;;;;;5083330;28;20548;-70
2022/09/26 11:10:24;;;;;;;9.80;5.40;;;12.30;99.90;;;;;;5082074;28;20301;-66
2022/09/26 11:13:17;;;;;;;10.87;5.47;;;12.30;99.90;;;;;;5078760;28;20356;-69
2022/09/26 11:16:00;;;;;;;10.03;5.83;;;12.40;99.90;;;;;;5082276;28;20734;-68
2022/09/26 11:19:04;;;;;;;9.33;5.80;;;12.50;99.90;;;;;;5079918;28;20313;-68
2022/09/26 11:21:36;;;;;;;9.93;5.17;;;12.50;99.90;;;;;;5082927;28;20369;-68
2022/09/26 11:24:26;;;;;;;10.87;6.17;;;12.50;99.90;;;;;;5082896;28;20293;-68
2022/09/26 11:27:30;;;;;;;8.27;4.37;;;12.50;99.90;;;;;;5079232;28;20306;-68
2022/09/26 11:30:19;;;;;;;8.63;4.80;;;12.60;99.90;;;;;;5072072;28;20271;-68
2022/09/26 11:32:57;;;;;;;11.80;5.90;;;12.60;99.90;;;;;;5054928;28;20282;-68
2022/09/26 11:35:29;;;;;;;9.33;6.53;;;12.60;99.90;;;;;;5072287;28;20283;-69
2022/09/26 11:38:22;;;;;;;9.53;6.10;;;12.60;99.90;;;;;;5072539;28;20624;-68
2022/09/26 11:41:03;;;;;;;9.33;5.70;;;12.70;99.90;;;;;;5067944;28;20643;-68
2022/09/26 11:43:39;;;;;;;8.93;5.50;;;12.70;99.90;;;;;;5072242;28;20282;-68
2022/09/26 11:46:20;;;;;;;7.77;5.23;;;12.70;99.90;;;;;;5072416;28;20275;-67
2022/09/26 11:48:46;;;;;;;9.07;5.97;;;12.70;99.90;;;;;;5072167;28;20856;-65
2022/09/26 11:51:50;;;;;;;7.47;5.20;;;12.70;99.90;;;;;;5072344;28;20370;-66
2022/09/26 11:54:23;;;;;;;7.97;5.20;;;12.70;99.90;;;;;;5072243;28;20049;-67
2022/09/26 11:56:59;;;;;;;9.53;4.60;;;12.70;99.90;;;;;;5072415;28;20279;-65
2022/09/26 11:59:40;;;;;;;8.63;5.07;;;12.70;99.90;;;;;;5037696;28;20389;-67
2022/09/26 12:02:29;;;;;;;8.43;5.50;;;12.70;99.90;;;;;;5038129;28;20301;-66
2022/09/26 12:05:14;;;;;;;8.27;5.80;;;12.70;99.90;;;;;;5057254;28;20282;-66
2022/09/26 12:07:45;;;;;;;9.80;4.80;;;12.70;99.90;;;;;;5075676;28;20274;-65
2022/09/26 12:10:23;;;;;;;7.10;4.53;;;12.70;99.90;;;;;;5075730;28;20373;-66
2022/09/26 12:13:08;;;;;;;8.40;5.70;;;12.70;99.90;;;;;;5076003;28;20286;-66
2022/09/26 12:15:51;;;;;;;11.23;5.97;;;12.70;99.90;;;;;;5075149;28;20302;-66
2022/09/26 12:18:39;;;;;;;11.10;5.47;;;12.80;99.90;;;;;;5075549;28;20306;-66
2022/09/26 12:21:10;;;;;;;8.97;5.60;;;12.80;99.90;;;;;;5075616;28;20326;-66
2022/09/26 12:23:52;;;;;;;7.53;5.03;;;12.90;99.90;;;;;;5057104;28;20282;-70
2022/09/26 12:26:39;;;;;;;8.47;5.10;;;13.10;99.90;;;;;;5054553;28;20280;-65
2022/09/26 12:29:44;;;;;;;7.57;5.20;;;13.20;99.90;;;;;;5073415;28;20279;-66
2022/09/26 12:32:15;;;;;;;7.77;4.17;;;13.30;99.90;;;;;;5054574;28;20287;-66
2022/09/26 12:35:06;;;;;;;5.77;4.50;;;13.40;99.90;;;;;;5072249;28;20291;-67
2022/09/26 12:38:04;;;;;;;6.63;4.47;;;13.40;99.90;;;;;;5074986;28;20352;-65
2022/09/26 12:40:35;;;;;;;5.73;4.33;;;13.40;99.90;;;;;;5074975;28;20673;-67
2022/09/26 12:43:18;;;;;;;8.30;4.20;;;13.40;99.90;;;;;;5075236;28;20286;-68
2022/09/26 12:46:12;;;;;;;6.77;4.50;;;13.50;99.90;;;;;;5074987;28;20614;-65
2022/09/26 12:48:50;;;;;;;7.20;3.87;;;13.50;99.90;;;;;;5074792;28;20311;-66
2022/09/26 12:51:22;;;;;;;7.73;4.10;;;13.40;99.90;;;;;;5057327;28;20293;-67
2022/09/26 12:54:47;;;;;;;8.20;4.77;;;13.40;99.90;;;;;;5074863;28;20374;-64
2022/09/26 12:57:37;;;;;;;8.00;4.40;;;13.50;99.90;;;;;;4973530;28;20338;-63
2022/09/26 13:00:10;;;;;;;8.93;4.70;;;13.50;99.90;;;;;;4973755;28;20282;-64
2022/09/26 13:03:12;;;;;;;6.13;3.97;;;13.50;99.90;;;;;;5056910;28;20295;-64
2022/09/26 13:06:05;;;;;;;7.27;4.73;;;13.50;99.90;;;;;;5074194;28;20824;-64
2022/09/26 13:09:05;;;;;;;7.53;4.20;;;13.50;99.90;;;;;;5074310;28;20279;-64
2022/09/26 13:11:47;;;;;;;7.50;4.90;;;13.50;99.90;;;;;;5056360;28;20314;-64
2022/09/26 13:14:26;;;;;;;6.80;3.87;;;13.40;99.90;;;;;;5074552;28;20278;-64
2022/09/26 13:17:12;;;;;;;6.67;4.00;;;13.40;99.90;;;;;;5055645;28;20294;-64
2022/09/26 13:19:40;;;;;;;7.83;3.93;;;13.40;99.90;;;;;;5055383;28;20642;-65
2022/09/26 13:22:30;;;;;;;7.27;4.43;;;13.40;99.90;;;;;;5073656;28;20310;-65
2022/09/26 13:25:28;;;;;;;6.43;4.60;;;13.40;99.90;;;;;;5056957;28;20306;-65
2022/09/26 13:28:03;;;;;;;7.07;4.33;;;13.40;99.90;;;;;;5074423;28;20277;-64
2022/09/26 13:30:35;;;;;;;;;;;13.50;99.90;;;;;;5074388;28;20286;-65
2022/09/26 13:33:07;;;;;;;7.63;4.57;;;;;;;;;;5074154;28;20011;-65